createdAt,value
2018-10-19T00:00:42.470Z,54.70
2018-10-19T00:03:09.799Z,58.23
2018-10-19T00:05:37.049Z,56.03
2018-10-19T00:08:04.825Z,60.80
2018-10-19T00:10:32.146Z,58.40
2018-10-19T00:12:59.497Z,58.93
2018-10-19T00:15:26.789Z,62.10
2018-10-19T00:17:54.083Z,66.60
2018-10-19T00:20:21.378Z,68.03
2018-10-19T00:22:48.702Z,59.30
2018-10-19T00:25:15.988Z,61.23
2018-10-19T00:27:43.251Z,62.80
2018-10-19T00:30:11.165Z,65.23
2018-10-19T00:32:38.482Z,63.33
2018-10-19T00:35:06.045Z,65.77
2018-10-19T00:37:33.309Z,70.90
2018-10-19T00:40:00.605Z,71.30
2018-10-19T00:42:27.893Z,67.77
2018-10-19T00:44:55.217Z,65.30
2018-10-19T00:47:22.513Z,65.83
2018-10-19T00:49:49.828Z,67.93
2018-10-19T00:52:17.149Z,61.63
2018-10-19T00:54:44.396Z,59.43
2018-10-19T00:57:11.735Z,62.93
2018-10-19T00:59:39.018Z,62.80
2018-10-19T01:02:06.361Z,55.47
2018-10-19T01:04:33.669Z,56.30
2018-10-19T01:07:01.049Z,56.33
2018-10-19T01:09:28.337Z,58.90
2018-10-19T01:11:55.622Z,58.43
2018-10-19T01:14:22.883Z,57.43
2018-10-19T01:16:50.175Z,64.33
2018-10-19T01:19:17.449Z,66.30
2018-10-19T01:21:44.725Z,67.53
2018-10-19T01:24:12.005Z,63.47
2018-10-19T01:26:39.286Z,63.73
2018-10-19T01:29:06.611Z,64.37
2018-10-19T01:31:34.004Z,64.83
2018-10-19T01:34:01.294Z,68.87
2018-10-19T01:36:34.182Z,64.10
2018-10-19T01:39:01.496Z,68.77
2018-10-19T01:41:28.871Z,69.83
2018-10-19T01:43:56.212Z,61.03
2018-10-19T01:46:23.513Z,67.03
2018-10-19T01:48:50.789Z,65.53
2018-10-19T01:51:18.044Z,68.60
2018-10-19T01:53:45.326Z,71.97
2018-10-19T01:56:18.281Z,71.07
2018-10-19T01:58:45.561Z,73.03
2018-10-19T02:01:12.860Z,63.93
2018-10-19T02:03:40.137Z,63.87
2018-10-19T02:06:07.438Z,68.20
2018-10-19T02:08:34.694Z,62.57
2018-10-19T02:11:02.044Z,61.93
2018-10-19T02:13:29.284Z,59.47
2018-10-19T02:15:56.560Z,55.33
2018-10-19T02:18:23.825Z,59.70
2018-10-19T02:20:51.092Z,62.10
2018-10-19T02:23:18.458Z,68.03
2018-10-19T02:25:45.657Z,63.53
2018-10-19T02:28:12.941Z,56.10
2018-10-19T02:30:40.242Z,58.50
2018-10-19T02:33:07.565Z,56.00
2018-10-19T02:35:34.860Z,60.53
2018-10-19T02:38:02.165Z,71.30
2018-10-19T02:40:29.445Z,65.43
2018-10-19T02:42:56.742Z,71.07
2018-10-19T02:45:24.042Z,73.53
2018-10-19T02:47:51.371Z,64.47
2018-10-19T02:50:18.665Z,63.70
2018-10-19T02:52:45.962Z,65.87
2018-10-19T02:55:13.249Z,62.47
2018-10-19T02:57:40.566Z,61.60
2018-10-19T03:00:09.476Z,65.07
2018-10-19T03:02:36.813Z,63.10
2018-10-19T03:05:05.399Z,61.27
2018-10-19T03:07:32.972Z,61.03
2018-10-19T03:10:00.319Z,59.40
2018-10-19T03:12:27.602Z,50.63
2018-10-19T03:14:55.072Z,46.83
2018-10-19T03:17:22.310Z,48.60
2018-10-19T03:19:49.585Z,50.37
2018-10-19T03:22:16.874Z,48.23
2018-10-19T03:24:44.433Z,49.53
2018-10-19T03:27:11.825Z,48.97
2018-10-19T03:29:38.970Z,47.03
2018-10-19T03:32:06.245Z,43.10
2018-10-19T03:34:33.637Z,38.07
2018-10-19T03:37:00.898Z,43.27
2018-10-19T03:39:28.233Z,47.70
2018-10-19T03:41:55.505Z,46.43
2018-10-19T03:44:22.782Z,44.97
2018-10-19T03:46:50.094Z,48.67
2018-10-19T03:49:18.290Z,53.20
2018-10-19T03:51:45.494Z,52.63
2018-10-19T03:54:12.761Z,53.23
2018-10-19T03:56:40.113Z,54.00
2018-10-19T03:59:07.414Z,52.00
2018-10-19T04:01:34.733Z,48.70
2018-10-19T04:04:02.059Z,44.60
2018-10-19T04:06:29.363Z,40.60
2018-10-19T04:08:56.699Z,39.97
2018-10-19T04:11:23.977Z,41.30
2018-10-19T04:13:51.350Z,47.20
2018-10-19T04:16:18.709Z,42.03
2018-10-19T04:18:45.956Z,39.53
2018-10-19T04:21:13.335Z,53.37
2018-10-19T04:23:40.565Z,50.53
2018-10-19T04:26:07.891Z,46.10
2018-10-19T04:28:35.265Z,45.23
2018-10-19T04:31:03.560Z,60.53
2018-10-19T04:33:30.903Z,51.70
2018-10-19T04:35:58.201Z,61.83
2018-10-19T04:38:25.522Z,63.27
2018-10-19T04:40:52.845Z,67.70
2018-10-19T04:43:20.120Z,64.03
2018-10-19T04:45:47.389Z,66.47
2018-10-19T04:48:14.762Z,62.73
2018-10-19T04:50:42.181Z,66.83
2018-10-19T04:53:09.534Z,68.07
2018-10-19T04:55:36.772Z,68.67
2018-10-19T04:58:04.103Z,63.97
2018-10-19T05:00:31.406Z,65.33
2018-10-19T05:02:58.750Z,70.47
2018-10-19T05:05:26.073Z,73.27
2018-10-19T05:07:53.375Z,72.53
2018-10-19T05:10:20.597Z,72.70
2018-10-19T05:12:47.974Z,73.20
2018-10-19T05:15:15.282Z,65.80
2018-10-19T05:17:42.612Z,61.50
2018-10-19T05:20:11.065Z,63.03
2018-10-19T05:22:38.480Z,61.93
2018-10-19T05:25:07.506Z,53.70
2018-10-19T05:27:34.845Z,46.00
2018-10-19T05:30:02.808Z,43.33
2018-10-19T05:32:30.081Z,51.27
2018-10-19T05:34:57.409Z,50.87
2018-10-19T05:37:24.634Z,42.60
2018-10-19T05:39:51.975Z,54.40
2018-10-19T05:42:19.269Z,90.63
2018-10-19T05:44:46.596Z,53.13
2018-10-19T05:47:13.913Z,66.70
2018-10-19T05:49:41.189Z,85.03
2018-10-19T05:52:08.606Z,94.40
2018-10-19T05:54:35.896Z,104.77
2018-10-19T05:57:03.230Z,89.00
2018-10-19T05:59:30.792Z,75.73
2018-10-19T06:01:58.101Z,76.97
2018-10-19T06:04:25.384Z,78.73
2018-10-19T06:06:52.711Z,72.97
2018-10-19T06:09:20.039Z,92.40
2018-10-19T06:11:47.334Z,85.53
2018-10-19T06:14:14.772Z,95.57
2018-10-19T06:16:41.913Z,94.37
2018-10-19T06:19:10.022Z,168.77
2018-10-19T06:21:37.330Z,149.00
2018-10-19T06:24:05.268Z,144.97
2018-10-19T06:26:32.654Z,154.90
2018-10-19T06:29:00.172Z,94.13
2018-10-19T06:31:27.445Z,84.50
2018-10-19T06:33:54.753Z,86.40
2018-10-19T06:36:22.049Z,79.50
2018-10-19T06:38:49.348Z,73.63
2018-10-19T06:41:16.749Z,71.37
2018-10-19T06:43:43.975Z,63.77
2018-10-19T06:46:11.274Z,59.73
2018-10-19T06:48:38.574Z,58.70
2018-10-19T06:51:05.891Z,63.93
2018-10-19T06:53:33.178Z,51.13
2018-10-19T06:56:00.563Z,52.07
2018-10-19T06:58:27.822Z,50.43
2018-10-19T07:00:55.116Z,57.07
2018-10-19T07:03:22.487Z,54.57
2018-10-19T07:05:50.174Z,60.27
2018-10-19T07:08:17.454Z,55.80
2018-10-19T07:10:44.669Z,50.10
2018-10-19T07:13:11.972Z,50.43
2018-10-19T07:15:39.269Z,53.47
2018-10-19T07:18:06.618Z,52.93
2018-10-19T07:20:33.945Z,47.47
2018-10-19T07:23:01.231Z,48.33
2018-10-19T07:25:28.702Z,49.80
2018-10-19T07:27:55.989Z,49.00
2018-10-19T07:30:23.353Z,45.50
2018-10-19T07:32:50.634Z,41.43
2018-10-19T07:35:17.993Z,45.60
2018-10-19T07:37:45.222Z,45.50
2018-10-19T07:40:12.522Z,44.23
2018-10-19T07:42:39.830Z,46.48
2018-10-19T07:45:07.205Z,45.23
2018-10-19T07:47:34.587Z,45.12
2018-10-19T07:50:01.865Z,43.77
2018-10-19T07:52:29.169Z,45.10
2018-10-19T07:54:56.457Z,43.40
2018-10-19T07:57:23.779Z,44.73
2018-10-19T07:59:51.152Z,45.88
2018-10-19T08:02:18.445Z,43.68
2018-10-19T08:04:45.736Z,43.83
2018-10-19T08:07:13.068Z,46.90
2018-10-19T08:09:40.356Z,43.98
2018-10-19T08:12:07.649Z,42.48
2018-10-19T08:14:34.973Z,43.33
2018-10-19T08:17:02.313Z,43.25
2018-10-19T08:19:29.572Z,47.10
2018-10-19T08:21:56.862Z,43.20
2018-10-19T08:24:24.160Z,43.33
2018-10-19T08:26:51.567Z,42.73
2018-10-19T08:29:18.889Z,42.60
2018-10-19T08:31:46.193Z,45.85
2018-10-19T08:34:13.505Z,42.20
2018-10-19T08:36:40.830Z,40.98
2018-10-19T08:39:08.199Z,40.25
2018-10-19T08:41:35.587Z,40.23
2018-10-19T08:44:02.877Z,37.63
2018-10-19T08:46:36.173Z,39.80
2018-10-19T08:49:03.934Z,37.73
2018-10-19T08:51:31.202Z,39.70
2018-10-19T08:53:58.522Z,39.25
2018-10-19T08:56:25.790Z,37.65
2018-10-19T08:58:53.084Z,34.75
2018-10-19T09:01:20.644Z,37.63
2018-10-19T09:03:47.930Z,38.30
2018-10-19T09:06:15.316Z,37.20
2018-10-19T09:08:42.489Z,34.43
2018-10-19T09:11:10.016Z,38.23
2018-10-19T09:13:38.304Z,40.95
2018-10-19T09:16:05.842Z,39.50
2018-10-19T09:18:33.173Z,36.40
2018-10-19T09:21:00.405Z,33.98
2018-10-19T09:23:27.681Z,35.03
2018-10-19T09:25:54.972Z,42.67
2018-10-19T09:28:22.264Z,38.98
2018-10-19T09:30:49.553Z,38.58
2018-10-19T09:33:17.027Z,38.88
2018-10-19T09:35:44.265Z,40.58
2018-10-19T09:38:11.460Z,37.05
2018-10-19T09:40:38.733Z,40.78
2018-10-19T09:43:06.092Z,36.48
2018-10-19T09:45:33.400Z,38.78
2018-10-19T09:48:00.714Z,38.35
2018-10-19T09:50:27.990Z,38.00
2018-10-19T09:52:55.293Z,37.53
2018-10-19T09:55:22.595Z,37.23
2018-10-19T09:57:49.865Z,36.68
2018-10-19T10:00:22.830Z,36.88
2018-10-19T10:02:50.125Z,36.85
2018-10-19T10:05:17.567Z,36.20
2018-10-19T10:07:44.835Z,36.53
2018-10-19T10:10:12.073Z,36.05
2018-10-19T10:12:39.406Z,34.03
2018-10-19T10:15:06.870Z,34.50
2018-10-19T10:17:34.169Z,34.83
2018-10-19T10:20:01.502Z,35.03
2018-10-19T10:22:28.783Z,32.60
2018-10-19T10:24:56.332Z,35.13
2018-10-19T10:27:23.515Z,34.83
2018-10-19T10:29:50.761Z,35.08
2018-10-19T10:32:18.058Z,37.40
2018-10-19T10:34:45.297Z,35.95
2018-10-19T10:37:12.615Z,35.10
2018-10-19T10:39:39.859Z,35.48
2018-10-19T10:42:07.111Z,33.45
2018-10-19T10:44:34.784Z,33.48
2018-10-19T10:47:02.123Z,32.42
2018-10-19T10:49:29.325Z,33.35
2018-10-19T10:51:56.603Z,31.93
2018-10-19T10:54:23.869Z,32.45
2018-10-19T10:56:51.201Z,31.77
2018-10-19T10:59:18.647Z,32.23
2018-10-19T11:01:45.923Z,32.48
2018-10-19T11:04:13.227Z,32.70
2018-10-19T11:06:40.493Z,31.82
2018-10-19T11:09:09.090Z,31.50
2018-10-19T11:11:36.380Z,32.95
2018-10-19T11:14:03.700Z,33.75
2018-10-19T11:16:30.997Z,38.15
2018-10-19T11:18:58.333Z,37.17
2018-10-19T11:21:25.589Z,38.73
2018-10-19T11:23:52.900Z,38.48
2018-10-19T11:26:20.273Z,38.25
2018-10-19T11:28:47.552Z,40.50
2018-10-19T11:31:14.917Z,39.00
2018-10-19T11:33:42.128Z,40.78
2018-10-19T11:36:09.432Z,45.17
2018-10-19T11:38:36.692Z,39.95
2018-10-19T11:41:04.185Z,40.45
2018-10-19T11:43:31.457Z,42.08
2018-10-19T11:45:58.751Z,44.38
2018-10-19T11:48:26.018Z,40.25
2018-10-19T11:50:53.323Z,41.20
2018-10-19T11:53:20.592Z,39.50
2018-10-19T11:55:47.898Z,41.68
2018-10-19T11:58:15.240Z,39.78
2018-10-19T12:00:42.452Z,40.55
2018-10-19T12:03:09.723Z,40.40
2018-10-19T12:05:37.010Z,40.60
2018-10-19T12:08:05.506Z,37.60
2018-10-19T12:10:32.889Z,40.92
2018-10-19T12:13:00.248Z,36.68
2018-10-19T12:15:27.522Z,38.95
2018-10-19T12:17:54.825Z,37.98
2018-10-19T12:20:22.114Z,37.75
2018-10-19T12:22:49.434Z,36.85
2018-10-19T12:25:17.038Z,35.50
2018-10-19T12:27:44.349Z,37.17
2018-10-19T12:30:12.679Z,38.63
2018-10-19T12:32:40.308Z,37.25
2018-10-19T12:35:09.389Z,34.65
2018-10-19T12:37:36.733Z,35.25
2018-10-19T12:40:04.141Z,34.03
2018-10-19T12:42:31.695Z,33.88
2018-10-19T12:44:59.096Z,31.55
2018-10-19T12:47:37.189Z,32.38
2018-10-19T12:50:04.793Z,30.20
2018-10-19T12:52:32.117Z,29.92
2018-10-19T12:54:59.460Z,29.10
2018-10-19T12:57:26.789Z,28.47
2018-10-19T12:59:54.232Z,28.47
2018-10-19T13:02:21.546Z,29.27
2018-10-19T13:04:49.217Z,27.25
2018-10-19T13:07:16.554Z,26.10
2018-10-19T13:09:43.862Z,26.25
2018-10-19T13:12:11.161Z,26.42
2018-10-19T13:14:38.626Z,26.10
2018-10-19T13:17:05.928Z,28.10
2018-10-19T13:19:33.185Z,27.87
2018-10-19T13:22:00.530Z,27.45
2018-10-19T13:24:27.848Z,28.40
2018-10-19T13:26:55.175Z,31.12
2018-10-19T13:29:22.468Z,30.97
2018-10-19T13:31:49.773Z,31.57
2018-10-19T13:34:17.072Z,29.15
2018-10-19T13:36:44.413Z,29.67
2018-10-19T13:39:13.014Z,29.30
2018-10-19T13:41:40.611Z,28.98
2018-10-19T13:44:07.865Z,27.10
2018-10-19T13:46:35.210Z,27.55
2018-10-19T13:49:02.753Z,28.52
2018-10-19T13:51:30.118Z,27.37
2018-10-19T13:53:57.405Z,26.93
2018-10-19T13:56:24.907Z,26.87
2018-10-19T13:58:52.223Z,27.27
2018-10-19T14:01:20.485Z,27.52
2018-10-19T14:03:50.736Z,25.20
2018-10-19T14:06:20.032Z,25.97
2018-10-19T14:08:47.301Z,26.60
2018-10-19T14:11:14.713Z,27.10
2018-10-19T14:13:41.923Z,27.20
2018-10-19T14:16:09.192Z,28.27
2018-10-19T14:18:36.493Z,28.30
2018-10-19T14:21:03.824Z,28.27
2018-10-19T14:23:31.165Z,29.02
2018-10-19T14:25:58.858Z,28.95
2018-10-19T14:28:26.143Z,29.60
2018-10-19T14:30:53.510Z,29.30
2018-10-19T14:33:20.954Z,28.57
2018-10-19T14:35:48.106Z,29.67
2018-10-19T14:38:15.389Z,31.15
2018-10-19T14:40:42.729Z,30.23
2018-10-19T14:43:10.012Z,28.80
2018-10-19T14:45:37.289Z,29.98
2018-10-19T14:48:06.199Z,29.95
2018-10-19T14:50:33.485Z,30.52
2018-10-19T14:53:00.937Z,30.70
2018-10-19T14:55:28.173Z,30.62
2018-10-19T14:57:55.486Z,32.53
2018-10-19T15:00:22.775Z,33.73
2018-10-19T15:02:50.091Z,32.53
2018-10-19T15:05:18.458Z,33.38
2018-10-19T15:07:45.813Z,32.08
2018-10-19T15:10:15.361Z,31.70
2018-10-19T15:12:42.814Z,32.05
2018-10-19T15:15:12.243Z,32.75
2018-10-19T15:17:39.465Z,31.42
2018-10-19T15:20:06.793Z,31.27
2018-10-19T15:22:34.634Z,29.98
2018-10-19T15:25:01.910Z,31.00
2018-10-19T15:27:29.257Z,31.15
2018-10-19T15:29:56.580Z,32.20
2018-10-19T15:32:23.989Z,31.87
2018-10-19T15:34:51.165Z,32.55
2018-10-19T15:37:18.510Z,33.70
2018-10-19T15:39:45.778Z,33.98
2018-10-19T15:42:13.142Z,36.28
2018-10-19T15:44:40.358Z,34.18
2018-10-19T15:47:07.653Z,34.25
2018-10-19T15:49:34.932Z,34.10
2018-10-19T15:52:02.192Z,37.30
2018-10-19T15:54:29.476Z,34.58
2018-10-19T15:56:56.847Z,35.48
2018-10-19T15:59:24.154Z,34.45
2018-10-19T16:01:51.408Z,34.70
2018-10-19T16:04:18.680Z,36.10
2018-10-19T16:06:45.953Z,34.23
2018-10-19T16:09:14.318Z,37.25
2018-10-19T16:11:41.761Z,36.40
2018-10-19T16:14:09.019Z,36.05
2018-10-19T16:16:36.248Z,36.58
2018-10-19T16:19:03.604Z,37.20
2018-10-19T16:21:31.242Z,39.10
2018-10-19T16:23:58.537Z,34.80
2018-10-19T16:26:25.988Z,34.60
2018-10-19T16:28:53.249Z,41.42
2018-10-19T16:31:20.541Z,34.95
2018-10-19T16:33:47.831Z,35.75
2018-10-19T16:36:15.227Z,35.28
2018-10-19T16:38:42.382Z,34.65
2018-10-19T16:41:09.668Z,33.80
2018-10-19T16:43:36.920Z,34.13
2018-10-19T16:46:04.902Z,34.75
2018-10-19T16:48:32.193Z,34.48
2018-10-19T16:50:59.469Z,34.40
2018-10-19T16:53:26.747Z,35.35
2018-10-19T16:55:53.997Z,34.55
2018-10-19T16:58:21.285Z,34.67
2018-10-19T17:00:48.581Z,35.83
2018-10-19T17:03:15.830Z,34.30
2018-10-19T17:05:43.070Z,34.20
2018-10-19T17:08:10.324Z,35.95
2018-10-19T17:10:37.573Z,35.70
2018-10-19T17:13:05.009Z,36.58
2018-10-19T17:15:32.281Z,36.95
2018-10-19T17:17:59.609Z,38.40
2018-10-19T17:20:27.248Z,37.40
2018-10-19T17:22:54.481Z,37.88
2018-10-19T17:25:21.770Z,38.42
2018-10-19T17:27:50.208Z,38.30
2018-10-19T17:30:17.512Z,39.30
2018-10-19T17:32:45.295Z,42.15
2018-10-19T17:35:12.644Z,46.77
2018-10-19T17:37:39.871Z,43.68
2018-10-19T17:40:08.456Z,42.67
2018-10-19T17:42:36.018Z,41.20
2018-10-19T17:45:03.543Z,41.48
2018-10-19T17:47:52.473Z,42.30
2018-10-19T17:50:20.461Z,44.60
2018-10-19T17:52:47.719Z,42.45
2018-10-19T17:55:14.991Z,44.85
2018-10-19T17:57:42.242Z,38.08
2018-10-19T18:00:10.904Z,43.08
2018-10-19T18:02:38.132Z,43.65
2018-10-19T18:05:06.010Z,45.40
2018-10-19T18:07:33.245Z,45.00
2018-10-19T18:10:00.581Z,47.35
2018-10-19T18:12:27.866Z,49.20
2018-10-19T18:14:55.126Z,47.00
2018-10-19T18:17:22.483Z,47.55
2018-10-19T18:19:49.741Z,45.40
2018-10-19T18:22:17.391Z,45.03
2018-10-19T18:24:44.400Z,42.30
2018-10-19T18:27:11.732Z,43.83
2018-10-19T18:29:38.946Z,45.70
2018-10-19T18:32:06.250Z,45.77
2018-10-19T18:34:33.557Z,48.30
2018-10-19T18:37:00.858Z,46.13
2018-10-19T18:39:28.164Z,44.70
2018-10-19T18:41:55.418Z,45.95
2018-10-19T18:44:22.738Z,49.15
2018-10-19T18:46:50.030Z,50.63
2018-10-19T18:49:17.313Z,47.03
2018-10-19T18:51:44.590Z,43.30
2018-10-19T18:54:11.869Z,47.73
2018-10-19T18:56:39.145Z,45.57
2018-10-19T18:59:06.782Z,48.23
2018-10-19T19:01:34.053Z,45.48
2018-10-19T19:04:01.309Z,50.17
2018-10-19T19:06:28.553Z,47.67
2018-10-19T19:08:55.849Z,50.00
2018-10-19T19:11:23.152Z,49.55
2018-10-19T19:13:50.564Z,49.23
2018-10-19T19:16:23.527Z,51.83
2018-10-19T19:18:51.274Z,52.97
2018-10-19T19:21:18.574Z,50.80
2018-10-19T19:23:51.637Z,51.23
2018-10-19T19:26:20.511Z,52.10
2018-10-19T19:28:47.775Z,53.50
2018-10-19T19:31:15.061Z,49.60
2018-10-19T19:33:48.054Z,53.40
2018-10-19T19:36:15.325Z,57.83
2018-10-19T19:38:42.697Z,60.37
2018-10-19T19:41:15.789Z,53.50
2018-10-19T19:43:43.031Z,54.87
2018-10-19T19:46:10.661Z,52.57
2018-10-19T19:48:43.769Z,53.68
2018-10-19T19:51:11.168Z,52.50
2018-10-19T19:53:38.833Z,50.47
2018-10-19T19:56:06.176Z,49.50
2018-10-19T19:58:33.559Z,58.50
2018-10-19T20:01:00.855Z,53.07
2018-10-19T20:03:28.118Z,56.07
2018-10-19T20:05:55.721Z,58.47
2018-10-19T20:08:23.009Z,54.60
2018-10-19T20:10:50.567Z,55.60
2018-10-19T20:13:17.858Z,58.20
2018-10-19T20:15:45.177Z,55.77
2018-10-19T20:18:12.500Z,61.28
2018-10-19T20:20:39.769Z,56.80
2018-10-19T20:23:07.069Z,57.20
2018-10-19T20:25:34.424Z,52.27
2018-10-19T20:28:01.724Z,50.07
2018-10-19T20:30:29.027Z,50.77
2018-10-19T20:32:56.305Z,47.13
2018-10-19T20:35:23.633Z,53.23
2018-10-19T20:37:50.924Z,50.83
2018-10-19T20:40:18.222Z,50.27
2018-10-19T20:42:45.485Z,49.03
2018-10-19T20:45:12.790Z,48.53
2018-10-19T20:47:40.130Z,44.57
2018-10-19T20:50:07.630Z,47.53
2018-10-19T20:52:34.869Z,52.40
2018-10-19T20:55:02.193Z,53.53
2018-10-19T20:57:29.541Z,44.07
2018-10-19T20:59:56.965Z,48.70
2018-10-19T21:02:24.445Z,51.60
2018-10-19T21:04:51.968Z,46.90
2018-10-19T21:07:19.697Z,46.33
2018-10-19T21:09:46.896Z,62.40
2018-10-19T21:12:14.293Z,54.37
2018-10-19T21:14:41.616Z,49.77
2018-10-19T21:17:09.009Z,49.47
2018-10-19T21:19:36.435Z,48.47
2018-10-19T21:22:04.147Z,47.43
2018-10-19T21:24:31.512Z,51.60
2018-10-19T21:26:58.809Z,50.93
2018-10-19T21:29:26.225Z,55.73
2018-10-19T21:31:53.526Z,52.90
2018-10-19T21:34:20.885Z,55.57
2018-10-19T21:36:48.187Z,57.73
2018-10-19T21:39:15.509Z,58.17
2018-10-19T21:41:42.837Z,54.77
2018-10-19T21:44:10.157Z,58.03
2018-10-19T21:46:37.605Z,56.63
2018-10-19T21:49:04.976Z,54.50
2018-10-19T21:51:32.254Z,51.57
2018-10-19T21:53:59.634Z,50.63
2018-10-19T21:56:26.877Z,51.97
2018-10-19T21:58:54.198Z,53.43
2018-10-19T22:01:21.460Z,53.30
2018-10-19T22:03:48.767Z,54.40
2018-10-19T22:06:16.136Z,52.20
2018-10-19T22:08:43.430Z,52.57
2018-10-19T22:11:10.825Z,52.63
2018-10-19T22:13:38.024Z,57.97
2018-10-19T22:16:05.541Z,52.23
2018-10-19T22:18:32.849Z,56.97
2018-10-19T22:21:00.282Z,54.20
2018-10-19T22:23:27.596Z,56.47
2018-10-19T22:25:54.879Z,53.60
2018-10-19T22:28:22.184Z,47.10
2018-10-19T22:30:49.499Z,43.67
2018-10-19T22:33:16.794Z,48.30
2018-10-19T22:35:44.044Z,52.77
2018-10-19T22:38:11.417Z,41.80
2018-10-19T22:40:38.712Z,37.40
2018-10-19T22:43:06.029Z,40.10
2018-10-19T22:45:33.244Z,37.53
2018-10-19T22:48:00.525Z,37.63
2018-10-19T22:50:27.854Z,38.57
2018-10-19T22:52:55.152Z,43.90
2018-10-19T22:55:22.459Z,43.23
2018-10-19T22:57:49.742Z,41.53
2018-10-19T23:00:17.072Z,42.83
2018-10-19T23:02:44.386Z,42.47
2018-10-19T23:05:12.268Z,43.33
2018-10-19T23:07:39.528Z,44.10
2018-10-19T23:10:07.031Z,40.97
2018-10-19T23:12:34.357Z,52.10
2018-10-19T23:15:01.691Z,50.93
2018-10-19T23:17:28.955Z,51.83
2018-10-19T23:19:56.241Z,50.03
2018-10-19T23:22:23.546Z,55.50
2018-10-19T23:24:50.844Z,55.83
2018-10-19T23:27:18.141Z,53.70
2018-10-19T23:29:45.477Z,58.17
2018-10-19T23:32:12.755Z,53.37
2018-10-19T23:34:40.089Z,56.47
2018-10-19T23:37:08.522Z,53.57
2018-10-19T23:39:35.756Z,54.07
2018-10-19T23:42:03.108Z,55.13
2018-10-19T23:44:30.548Z,59.23
2018-10-19T23:46:58.011Z,56.93
2018-10-19T23:49:25.574Z,54.43
2018-10-19T23:51:53.003Z,48.57
2018-10-19T23:54:20.329Z,47.53
2018-10-19T23:56:47.608Z,48.27
2018-10-19T23:59:14.919Z,49.87
